Time;durP1;ratioP1;P1;durP2;ratioP2;P2;SDS_P1;SDS_P2;PMS_P1;PMS_P2;Temp;Humidity;BMP_temperature;BMP_pressure;BME280_temperature;BME280_humidity;BME280_pressure;Samples;Min_cycle;Max_cycle;Signal;HPM_P1;HPM_P2
2022/09/18 08:25:38;;;;;;;;;1.75;1.75;;;;;;;;5171953;27;76995;-77
2022/09/18 08:28:04;;;;;;;;;2.00;2.00;;;;;;;;5155600;27;20469;-78
2022/09/18 08:35:40;;;;;;;;;2.75;0.00;;;;;;;;5829761;22;10455;-84
2022/09/18 08:38:06;;;;;;;;;2.00;2.00;;;;;;;;5067774;28;10508;-81
2022/09/18 08:42:46;;;;;;;;;3.00;0.33;;;;;;;;5173577;27;78641;-87
2022/09/18 08:45:14;;;;;;;;;2.00;2.00;;;;;;;;5158160;27;21067;-81
2022/09/18 08:47:42;;;;;;;;;1.50;1.00;;;;;;;;5159138;27;11380;-86
2022/09/18 08:50:18;;;;;;;;;1.50;0.75;;;;;;;;5158000;27;10757;-85
2022/09/18 08:52:47;;;;;;;;;1.50;1.25;;;;;;;;5155254;27;9699;-86
2022/09/18 08:55:26;;;;;;;;;1.75;1.00;;;;;;;;5157342;27;8886;-87
2022/09/18 08:58:00;;;;;;;;;6.50;4.75;;;;;;;;5144523;27;8987;-82
2022/09/18 09:00:46;;;;;;;;;0.00;0.00;;;;;;;;5150928;27;11618;-81
2022/09/18 09:03:38;;;;;;;;;5.75;5.25;;;;;;;;5153351;27;11558;-83
2022/09/18 09:06:03;;;;;;;;;2.00;2.00;;;;;;;;5150586;27;11859;-79
2022/09/18 09:08:28;;;;;;;;;2.50;2.00;;;;;;;;5153300;27;11765;-83
2022/09/18 09:11:01;;;;;;;;;0.00;0.00;;;;;;;;5156325;27;8807;-77
2022/09/18 09:13:35;;;;;;;;;5.20;3.80;;;;;;;;5153334;27;10508;-76
2022/09/18 09:16:07;;;;;;;;;10.40;8.60;;;;;;;;5155465;27;13039;-77
2022/09/18 09:18:48;;;;;;;;;7.20;5.40;;;;;;;;5154622;27;22266;-76
2022/09/18 09:21:36;;;;;;;;;3.00;3.00;;;;;;;;5154630;27;21930;-77
2022/09/18 09:24:19;;;;;;;;;1.00;1.00;;;;;;;;5148190;27;11952;-77
2022/09/18 09:26:45;;;;;;;;;11.60;10.60;;;;;;;;5155403;27;8875;-78
2022/09/18 09:29:14;;;;;;;;;3.00;1.25;;;;;;;;5153796;27;22736;-78
2022/09/18 09:31:44;;;;;;;;;6.00;6.00;;;;;;;;5155870;27;22997;-76
2022/09/18 09:34:13;;;;;;;;;6.20;4.40;;;;;;;;5155630;27;14314;-80
2022/09/18 09:36:43;;;;;;;;;4.00;4.00;;;;;;;;5157547;27;11311;-82
2022/09/18 09:39:19;;;;;;;;;4.00;4.00;;;;;;;;5155396;27;12051;-82
2022/09/18 09:42:02;;;;;;;;;3.00;3.00;;;;;;;;5156876;27;8812;-82
2022/09/18 09:44:40;;;;;;;;;2.00;2.00;;;;;;;;5158038;27;8902;-86
2022/09/18 09:47:19;;;;;;;;;3.40;2.00;;;;;;;;5157294;27;9049;-85
2022/09/18 09:49:52;;;;;;;;;1.60;1.60;;;;;;;;5157129;27;9273;-82
2022/09/18 09:52:22;;;;;;;;;8.40;7.80;;;;;;;;5150051;27;12265;-82
2022/09/18 09:55:08;;;;;;;;;1.40;1.00;;;;;;;;5139544;27;11609;-83
2022/09/18 09:57:33;;;;;;;;;4.00;4.00;;;;;;;;5141334;27;11901;-81
2022/09/18 10:00:11;;;;;;;;;4.25;4.00;;;;;;;;5143982;27;10731;-84
2022/09/18 10:02:43;;;;;;;;;1.60;1.60;;;;;;;;5143656;27;9531;-85
2022/09/18 10:05:24;;;;;;;;;0.80;0.80;;;;;;;;5144008;27;11783;-85
2022/09/18 10:08:01;;;;;;;;;0.60;0.60;;;;;;;;5132455;27;11765;-84
2022/09/18 10:10:35;;;;;;;;;0.00;0.00;;;;;;;;5141663;27;9406;-86
2022/09/18 10:13:05;;;;;;;;;1.20;1.20;;;;;;;;5143228;27;9717;-82
2022/09/18 10:15:34;;;;;;;;;0.20;0.00;;;;;;;;5143942;27;11719;-83
2022/09/18 10:18:02;;;;;;;;;0.00;0.00;;;;;;;;5142160;27;11598;-82
2022/09/18 10:20:29;;;;;;;;;0.00;0.00;;;;;;;;5144204;27;8784;-85
2022/09/18 10:22:57;;;;;;;;;0.00;0.00;;;;;;;;5143753;27;8785;-81
2022/09/18 10:25:29;;;;;;;;;0.00;0.00;;;;;;;;5141212;27;8788;-79
2022/09/18 10:27:54;;;;;;;;;0.00;0.00;;;;;;;;5141492;27;8901;-85
2022/09/18 10:30:20;;;;;;;;;0.00;0.00;;;;;;;;5143547;27;8792;-81
2022/09/18 10:32:45;;;;;;;;;0.00;0.00;;;;;;;;5143469;27;8772;-81
2022/09/18 10:35:36;;;;;;;;;0.00;0.00;;;;;;;;5143061;27;8872;-80
2022/09/18 10:38:02;;;;;;;;;0.00;0.00;;;;;;;;5134380;27;8876;-82
2022/09/18 10:40:31;;;;;;;;;0.00;0.00;;;;;;;;5128912;27;8937;-75
2022/09/18 10:42:57;;;;;;;;;0.00;0.00;;;;;;;;5122850;27;8863;-82
2022/09/18 10:45:24;;;;;;;;;0.20;0.20;;;;;;;;5141291;27;8776;-80
2022/09/18 10:48:01;;;;;;;;;0.75;0.75;;;;;;;;5139599;27;10966;-81
2022/09/18 10:50:26;;;;;;;;;3.00;2.00;;;;;;;;5138998;27;8816;-80
2022/09/18 10:52:52;;;;;;;;;3.00;2.00;;;;;;;;5141817;27;11367;-78
2022/09/18 10:55:20;;;;;;;;;3.25;3.00;;;;;;;;5141464;27;8831;-77
2022/09/18 10:57:48;;;;;;;;;3.25;2.75;;;;;;;;5140489;27;9683;-77
2022/09/18 11:00:19;;;;;;;;;3.75;3.25;;;;;;;;5143097;27;9110;-75
2022/09/18 11:02:44;;;;;;;;;2.00;2.00;;;;;;;;5142632;27;9790;-76
2022/09/18 11:05:31;;;;;;;;;4.67;2.67;;;;;;;;5140865;27;11296;-78
2022/09/18 11:07:57;;;;;;;;;4.00;1.00;;;;;;;;5140950;27;11416;-77
2022/09/18 11:10:27;;;;;;;;;11.50;11.50;;;;;;;;5142048;27;10617;-76
2022/09/18 11:12:55;;;;;;;;;4.00;4.00;;;;;;;;5141735;27;22559;-75
2022/09/18 11:15:22;;;;;;;;;1.00;1.00;;;;;;;;5141098;27;23507;-75
2022/09/18 11:17:52;;;;;;;;;1.00;1.00;;;;;;;;5140008;27;10427;-76
2022/09/18 11:20:37;;;;;;;;;1.00;0.50;;;;;;;;5140605;27;8824;-76
2022/09/18 11:23:18;;;;;;;;;2.25;2.25;;;;;;;;5140957;27;9239;-74
2022/09/18 11:25:44;;;;;;;;;7.50;7.00;;;;;;;;5120747;27;11581;-74
2022/09/18 11:28:22;;;;;;;;;7.50;7.00;;;;;;;;5127683;27;12875;-89
2022/09/18 11:30:59;;;;;;;;;5.00;5.00;;;;;;;;5142144;27;8811;-89
2022/09/18 11:33:26;;;;;;;;;3.50;3.50;;;;;;;;5141836;27;10437;-91
2022/09/18 11:35:54;;;;;;;;;5.25;5.25;;;;;;;;5140136;27;14742;-92
2022/09/18 11:38:19;;;;;;;;;2.25;1.50;;;;;;;;5141011;27;11401;-87
2022/09/18 11:40:52;;;;;;;;;1.33;1.33;;;;;;;;5142269;27;11362;-87
2022/09/18 11:43:33;;;;;;;;;3.25;2.00;;;;;;;;5140787;27;12231;-87
2022/09/18 11:46:18;;;;;;;;;2.00;2.00;;;;;;;;5138918;27;11626;-81
2022/09/18 11:48:46;;;;;;;;;7.25;3.00;;;;;;;;5138657;27;8780;-81
2022/09/18 11:51:14;;;;;;;;;2.50;2.00;;;;;;;;5140747;27;10352;-79
2022/09/18 11:53:45;;;;;;;;;6.25;5.00;;;;;;;;5140249;27;10602;-81
2022/09/18 11:56:16;;;;;;;;;2.50;2.50;;;;;;;;5141547;27;10597;-86
2022/09/18 11:58:41;;;;;;;;;2.00;1.75;;;;;;;;5139524;27;11381;-79
2022/09/18 12:01:15;;;;;;;;;3.00;3.00;;;;;;;;5141161;27;10261;-77
2022/09/18 12:03:44;;;;;;;;;4.50;4.50;;;;;;;;5139386;27;14178;-84
2022/09/18 12:06:32;;;;;;;;;4.50;4.50;;;;;;;;5141957;27;12467;-86
2022/09/18 12:09:07;;;;;;;;;5.00;5.00;;;;;;;;5111493;27;8807;-88
2022/09/18 12:11:32;;;;;;;;;2.75;2.25;;;;;;;;5142866;27;13394;-86
2022/09/18 12:13:57;;;;;;;;;3.00;3.00;;;;;;;;5140856;27;11808;-83
2022/09/18 12:16:28;;;;;;;;;1.00;1.00;;;;;;;;5147513;27;11954;-85
2022/09/18 12:19:12;;;;;;;;;2.00;2.00;;;;;;;;5141152;27;8796;-85
2022/09/18 12:21:57;;;;;;;;;3.50;2.00;;;;;;;;5151740;27;8780;-88
2022/09/18 12:24:22;;;;;;;;;1.00;1.00;;;;;;;;5130734;27;9147;-81
2022/09/18 12:26:55;;;;;;;;;0.67;0.67;;;;;;;;5141296;27;10401;-81
2022/09/18 12:29:30;;;;;;;;;0.00;0.00;;;;;;;;5139149;27;12830;-78
2022/09/18 12:32:04;;;;;;;;;0.25;0.00;;;;;;;;5140915;27;9823;-77
2022/09/18 12:34:40;;;;;;;;;1.00;1.00;;;;;;;;5113453;28;8795;-80
2022/09/18 12:37:12;;;;;;;;;1.00;1.00;;;;;;;;5125994;27;12172;-83
2022/09/18 12:39:47;;;;;;;;;1.00;0.00;;;;;;;;5145417;27;8812;-83
2022/09/18 12:42:24;;;;;;;;;2.25;0.00;;;;;;;;5140988;27;8973;-82
2022/09/18 12:45:09;;;;;;;;;0.00;0.00;;;;;;;;5140391;27;9247;-78
2022/09/18 12:47:56;;;;;;;;;0.00;0.00;;;;;;;;5105880;27;8800;-75
2022/09/18 12:50:28;;;;;;;;;0.25;0.00;;;;;;;;5138355;27;8800;-75
2022/09/18 12:53:34;;;;;;;;;0.50;0.00;;;;;;;;5129000;27;8809;-78
2022/09/18 12:56:00;;;;;;;;;0.25;0.00;;;;;;;;5073905;28;8842;-77
2022/09/18 12:58:42;;;;;;;;;0.00;0.00;;;;;;;;5066740;28;9570;-79
2022/09/18 13:01:33;;;;;;;;;0.00;0.00;;;;;;;;5072103;28;9588;-78
2022/09/18 13:04:22;;;;;;;;;0.00;0.00;;;;;;;;5046342;28;8868;-79
2022/09/18 13:06:52;;;;;;;;;0.00;0.00;;;;;;;;5073782;28;8797;-78
2022/09/18 13:09:26;;;;;;;;;0.00;0.00;;;;;;;;5050766;28;8824;-78
2022/09/18 13:11:58;;;;;;;;;0.00;0.00;;;;;;;;5066102;28;8796;-77
2022/09/18 13:14:29;;;;;;;;;0.00;0.00;;;;;;;;5063730;28;8827;-78
2022/09/18 13:16:57;;;;;;;;;0.75;0.00;;;;;;;;5066821;28;8849;-78
2022/09/18 13:19:30;;;;;;;;;0.00;0.00;;;;;;;;5063918;28;8871;-77
2022/09/18 13:21:57;;;;;;;;;0.00;0.00;;;;;;;;5064443;28;8819;-79
2022/09/18 13:24:26;;;;;;;;;0.00;0.00;;;;;;;;5067090;28;8790;-77
2022/09/18 13:26:52;;;;;;;;;0.00;0.00;;;;;;;;5090140;27;8791;-78
2022/09/18 13:29:36;;;;;;;;;0.00;0.00;;;;;;;;5131737;27;8782;-77
2022/09/18 13:32:01;;;;;;;;;0.00;0.00;;;;;;;;5132647;27;8822;-78
2022/09/18 13:34:27;;;;;;;;;0.00;0.00;;;;;;;;5141757;27;8815;-80
2022/09/18 13:36:52;;;;;;;;;0.33;0.00;;;;;;;;5141011;27;8842;-79
2022/09/18 13:39:21;;;;;;;;;0.00;0.00;;;;;;;;5141691;27;8780;-77
2022/09/18 13:41:51;;;;;;;;;0.00;0.00;;;;;;;;5141265;27;8854;-79
2022/09/18 13:44:23;;;;;;;;;0.00;0.00;;;;;;;;5141771;27;8852;-80
2022/09/18 13:46:49;;;;;;;;;0.50;0.00;;;;;;;;5140204;27;8831;-78
2022/09/18 13:49:31;;;;;;;;;0.00;0.00;;;;;;;;5141913;27;8796;-82
2022/09/18 13:52:16;;;;;;;;;0.75;0.75;;;;;;;;5140459;27;8827;-79
2022/09/18 13:54:58;;;;;;;;;0.00;0.00;;;;;;;;5141157;27;8772;-80
2022/09/18 13:57:28;;;;;;;;;1.00;0.00;;;;;;;;5141442;27;8765;-79
2022/09/18 13:59:57;;;;;;;;;0.00;0.00;;;;;;;;5141308;27;8800;-80
2022/09/18 14:02:27;;;;;;;;;0.00;0.00;;;;;;;;5140921;27;8816;-81
2022/09/18 14:05:11;;;;;;;;;2.00;0.00;;;;;;;;5140576;27;8834;-79
2022/09/18 14:07:57;;;;;;;;;0.50;0.00;;;;;;;;5140406;27;8873;-78
2022/09/18 14:10:33;;;;;;;;;0.50;0.00;;;;;;;;5116970;27;9953;-79
2022/09/18 14:13:05;;;;;;;;;0.75;0.00;;;;;;;;5140654;27;8787;-77
2022/09/18 14:15:31;;;;;;;;;0.00;0.00;;;;;;;;5140447;27;8805;-80
2022/09/18 14:18:05;;;;;;;;;0.00;0.00;;;;;;;;5142047;27;8796;-81
2022/09/18 14:20:31;;;;;;;;;0.00;0.00;;;;;;;;5138777;27;8816;-81
2022/09/18 14:23:17;;;;;;;;;0.00;0.00;;;;;;;;5142069;27;8765;-81
2022/09/18 14:25:46;;;;;;;;;0.00;0.00;;;;;;;;5141378;27;9706;-83
2022/09/18 14:28:13;;;;;;;;;0.00;0.00;;;;;;;;5138105;27;8804;-81
2022/09/18 14:30:38;;;;;;;;;0.50;0.50;;;;;;;;5142718;27;8815;-81
2022/09/18 14:33:07;;;;;;;;;0.00;0.00;;;;;;;;5141677;27;8918;-83
2022/09/18 14:35:34;;;;;;;;;1.50;0.75;;;;;;;;5140889;27;8969;-82
2022/09/18 14:37:59;;;;;;;;;0.75;0.50;;;;;;;;5139246;27;12571;-81
2022/09/18 14:40:26;;;;;;;;;0.00;0.00;;;;;;;;5140048;27;11308;-81
2022/09/18 14:42:51;;;;;;;;;0.00;0.00;;;;;;;;5140529;27;9792;-80
2022/09/18 14:45:25;;;;;;;;;0.00;0.00;;;;;;;;5140614;27;8795;-79
2022/09/18 14:47:50;;;;;;;;;1.00;1.00;;;;;;;;5139604;27;8800;-80
2022/09/18 14:50:28;;;;;;;;;0.00;0.00;;;;;;;;5138003;27;8776;-80
2022/09/18 14:52:55;;;;;;;;;0.00;0.00;;;;;;;;5136282;27;8812;-82
2022/09/18 14:55:22;;;;;;;;;0.00;0.00;;;;;;;;5137294;27;8918;-82
2022/09/18 14:58:06;;;;;;;;;0.00;0.00;;;;;;;;5139579;27;8796;-84
2022/09/18 15:00:33;;;;;;;;;0.50;0.00;;;;;;;;5137802;27;8834;-78
2022/09/18 15:03:01;;;;;;;;;1.00;0.00;;;;;;;;5141244;27;8777;-77
2022/09/18 15:05:27;;;;;;;;;0.00;0.00;;;;;;;;5140660;27;9567;-77
2022/09/18 15:07:55;;;;;;;;;0.00;0.00;;;;;;;;5140010;27;8784;-76
2022/09/18 15:10:21;;;;;;;;;0.25;0.00;;;;;;;;5137203;27;9613;-76
